sensor_id;sensor_type;location;lat;lon;timestamp;temperature;humidity
5130;DHT22;2583;50.946;6.954;2023-05-07T00:01:51;15.90;99.90
5130;DHT22;2583;50.946;6.954;2023-05-07T00:04:19;15.90;99.90
5130;DHT22;2583;50.946;6.954;2023-05-07T00:06:50;15.90;99.90
5130;DHT22;2583;50.946;6.954;2023-05-07T00:09:20;15.90;99.90
5130;DHT22;2583;50.946;6.954;2023-05-07T00:11:47;15.90;99.90
5130;DHT22;2583;50.946;6.954;2023-05-07T00:14:14;15.90;99.90
5130;DHT22;2583;50.946;6.954;2023-05-07T00:16:43;15.80;99.90
5130;DHT22;2583;50.946;6.954;2023-05-07T00:19:12;15.80;99.90
5130;DHT22;2583;50.946;6.954;2023-05-07T00:21:39;15.80;99.90
5130;DHT22;2583;50.946;6.954;2023-05-07T00:24:06;15.80;99.90
5130;DHT22;2583;50.946;6.954;2023-05-07T00:26:34;15.80;99.90
5130;DHT22;2583;50.946;6.954;2023-05-07T00:29:02;15.80;99.90
5130;DHT22;2583;50.946;6.954;2023-05-07T00:31:32;15.80;99.90
5130;DHT22;2583;50.946;6.954;2023-05-07T00:34:01;15.80;99.90
5130;DHT22;2583;50.946;6.954;2023-05-07T00:36:28;15.70;99.90
5130;DHT22;2583;50.946;6.954;2023-05-07T00:38:58;15.70;99.90
5130;DHT22;2583;50.946;6.954;2023-05-07T00:41:27;15.70;99.90
5130;DHT22;2583;50.946;6.954;2023-05-07T00:43:55;15.70;99.90
5130;DHT22;2583;50.946;6.954;2023-05-07T00:46:26;15.70;99.90
5130;DHT22;2583;50.946;6.954;2023-05-07T00:48:54;15.70;99.90
5130;DHT22;2583;50.946;6.954;2023-05-07T00:51:22;15.70;99.90
5130;DHT22;2583;50.946;6.954;2023-05-07T00:53:50;15.70;99.90
5130;DHT22;2583;50.946;6.954;2023-05-07T00:56:23;15.70;99.90
5130;DHT22;2583;50.946;6.954;2023-05-07T00:58:54;15.70;99.90
5130;DHT22;2583;50.946;6.954;2023-05-07T01:01:22;15.70;99.90
5130;DHT22;2583;50.946;6.954;2023-05-07T01:03:49;15.70;99.90
5130;DHT22;2583;50.946;6.954;2023-05-07T01:06:17;15.70;99.90
5130;DHT22;2583;50.946;6.954;2023-05-07T01:08:47;15.70;99.90
5130;DHT22;2583;50.946;6.954;2023-05-07T01:11:18;15.70;99.90
5130;DHT22;2583;50.946;6.954;2023-05-07T01:13:48;15.60;99.90
5130;DHT22;2583;50.946;6.954;2023-05-07T01:16:16;15.60;99.90
5130;DHT22;2583;50.946;6.954;2023-05-07T01:18:44;15.60;99.90
5130;DHT22;2583;50.946;6.954;2023-05-07T01:21:15;15.60;99.90
5130;DHT22;2583;50.946;6.954;2023-05-07T01:23:44;15.60;99.90
5130;DHT22;2583;50.946;6.954;2023-05-07T01:26:15;15.60;99.90
5130;DHT22;2583;50.946;6.954;2023-05-07T01:28:42;15.60;99.90
5130;DHT22;2583;50.946;6.954;2023-05-07T01:31:09;15.60;99.90
5130;DHT22;2583;50.946;6.954;2023-05-07T01:33:38;15.60;99.90
5130;DHT22;2583;50.946;6.954;2023-05-07T01:36:08;15.70;99.90
5130;DHT22;2583;50.946;6.954;2023-05-07T01:38:38;15.70;99.90
5130;DHT22;2583;50.946;6.954;2023-05-07T01:41:07;15.70;99.90
5130;DHT22;2583;50.946;6.954;2023-05-07T01:43:35;15.70;99.90
5130;DHT22;2583;50.946;6.954;2023-05-07T01:46:03;15.70;99.90
5130;DHT22;2583;50.946;6.954;2023-05-07T01:48:32;15.60;99.90
5130;DHT22;2583;50.946;6.954;2023-05-07T01:51:01;15.60;99.90
5130;DHT22;2583;50.946;6.954;2023-05-07T01:53:30;15.60;99.90
5130;DHT22;2583;50.946;6.954;2023-05-07T01:56:02;15.60;99.90
5130;DHT22;2583;50.946;6.954;2023-05-07T01:58:29;15.60;99.90
5130;DHT22;2583;50.946;6.954;2023-05-07T02:00:57;15.50;99.90
5130;DHT22;2583;50.946;6.954;2023-05-07T02:03:24;15.50;99.90
5130;DHT22;2583;50.946;6.954;2023-05-07T02:05:51;15.50;99.90
5130;DHT22;2583;50.946;6.954;2023-05-07T02:08:18;15.50;99.90
5130;DHT22;2583;50.946;6.954;2023-05-07T02:10:46;15.40;99.90
5130;DHT22;2583;50.946;6.954;2023-05-07T02:13:15;15.40;99.90
5130;DHT22;2583;50.946;6.954;2023-05-07T02:15:42;15.40;99.90
5130;DHT22;2583;50.946;6.954;2023-05-07T02:18:12;15.40;99.90
5130;DHT22;2583;50.946;6.954;2023-05-07T02:20:40;15.30;99.90
5130;DHT22;2583;50.946;6.954;2023-05-07T02:23:08;15.30;99.90
5130;DHT22;2583;50.946;6.954;2023-05-07T02:25:35;15.20;99.90
5130;DHT22;2583;50.946;6.954;2023-05-07T02:28:03;15.20;99.90
5130;DHT22;2583;50.946;6.954;2023-05-07T02:30:30;15.20;99.90
5130;DHT22;2583;50.946;6.954;2023-05-07T02:32:58;15.10;99.90
5130;DHT22;2583;50.946;6.954;2023-05-07T02:35:28;15.10;99.90
5130;DHT22;2583;50.946;6.954;2023-05-07T02:37:56;15.10;99.90
5130;DHT22;2583;50.946;6.954;2023-05-07T02:40:24;15.10;99.90
5130;DHT22;2583;50.946;6.954;2023-05-07T02:42:52;15.10;99.90
5130;DHT22;2583;50.946;6.954;2023-05-07T02:45:19;15.10;99.90
5130;DHT22;2583;50.946;6.954;2023-05-07T02:47:47;15.10;99.90
5130;DHT22;2583;50.946;6.954;2023-05-07T02:50:15;15.10;99.90
5130;DHT22;2583;50.946;6.954;2023-05-07T02:52:42;15.10;99.90
5130;DHT22;2583;50.946;6.954;2023-05-07T02:55:09;15.10;99.90
5130;DHT22;2583;50.946;6.954;2023-05-07T02:57:37;15.10;99.90
5130;DHT22;2583;50.946;6.954;2023-05-07T03:00:15;15.10;99.90
5130;DHT22;2583;50.946;6.954;2023-05-07T03:02:42;15.10;99.90
5130;DHT22;2583;50.946;6.954;2023-05-07T03:05:10;15.10;99.90
5130;DHT22;2583;50.946;6.954;2023-05-07T03:07:40;15.10;99.90
5130;DHT22;2583;50.946;6.954;2023-05-07T03:10:11;15.10;99.90
5130;DHT22;2583;50.946;6.954;2023-05-07T03:12:39;15.10;99.90
5130;DHT22;2583;50.946;6.954;2023-05-07T03:15:07;15.10;99.90
5130;DHT22;2583;50.946;6.954;2023-05-07T03:17:35;15.10;99.90
5130;DHT22;2583;50.946;6.954;2023-05-07T03:20:03;15.10;99.90
5130;DHT22;2583;50.946;6.954;2023-05-07T03:22:30;15.10;99.90
5130;DHT22;2583;50.946;6.954;2023-05-07T03:24:57;15.00;99.90
5130;DHT22;2583;50.946;6.954;2023-05-07T03:27:25;15.00;99.90
5130;DHT22;2583;50.946;6.954;2023-05-07T03:29:53;15.00;99.90
5130;DHT22;2583;50.946;6.954;2023-05-07T03:32:20;15.00;99.90
5130;DHT22;2583;50.946;6.954;2023-05-07T03:34:48;15.00;99.90
5130;DHT22;2583;50.946;6.954;2023-05-07T03:37:16;15.00;99.90
5130;DHT22;2583;50.946;6.954;2023-05-07T03:39:43;15.00;99.90
5130;DHT22;2583;50.946;6.954;2023-05-07T03:42:10;15.00;99.90
5130;DHT22;2583;50.946;6.954;2023-05-07T03:44:38;15.00;99.90
5130;DHT22;2583;50.946;6.954;2023-05-07T03:47:08;15.00;99.90
5130;DHT22;2583;50.946;6.954;2023-05-07T03:49:37;15.00;99.90
5130;DHT22;2583;50.946;6.954;2023-05-07T03:52:05;15.00;99.90
5130;DHT22;2583;50.946;6.954;2023-05-07T03:54:32;14.90;99.90
5130;DHT22;2583;50.946;6.954;2023-05-07T03:56:59;15.00;99.90
5130;DHT22;2583;50.946;6.954;2023-05-07T03:59:26;15.00;99.90
5130;DHT22;2583;50.946;6.954;2023-05-07T04:01:53;15.00;99.90
5130;DHT22;2583;50.946;6.954;2023-05-07T04:04:21;15.00;99.90
5130;DHT22;2583;50.946;6.954;2023-05-07T04:06:49;15.00;99.90
5130;DHT22;2583;50.946;6.954;2023-05-07T04:09:17;15.00;99.90
5130;DHT22;2583;50.946;6.954;2023-05-07T04:11:44;15.00;99.90
5130;DHT22;2583;50.946;6.954;2023-05-07T04:14:11;15.00;99.90
5130;DHT22;2583;50.946;6.954;2023-05-07T04:16:39;15.00;99.90
5130;DHT22;2583;50.946;6.954;2023-05-07T04:19:06;15.00;99.90
5130;DHT22;2583;50.946;6.954;2023-05-07T04:21:33;15.00;99.90
5130;DHT22;2583;50.946;6.954;2023-05-07T04:24:03;15.10;99.90
5130;DHT22;2583;50.946;6.954;2023-05-07T04:26:31;15.10;99.90
5130;DHT22;2583;50.946;6.954;2023-05-07T04:28:58;15.10;99.90
5130;DHT22;2583;50.946;6.954;2023-05-07T04:31:27;15.10;99.90
5130;DHT22;2583;50.946;6.954;2023-05-07T04:33:54;15.10;99.90
5130;DHT22;2583;50.946;6.954;2023-05-07T04:36:22;15.20;99.90
5130;DHT22;2583;50.946;6.954;2023-05-07T04:38:49;15.20;99.90
5130;DHT22;2583;50.946;6.954;2023-05-07T04:41:16;15.30;99.90
5130;DHT22;2583;50.946;6.954;2023-05-07T04:43:44;15.20;99.90
5130;DHT22;2583;50.946;6.954;2023-05-07T04:46:12;15.30;99.90
5130;DHT22;2583;50.946;6.954;2023-05-07T04:48:40;15.30;99.90
5130;DHT22;2583;50.946;6.954;2023-05-07T04:51:08;15.30;99.90
5130;DHT22;2583;50.946;6.954;2023-05-07T04:53:36;15.30;99.90
5130;DHT22;2583;50.946;6.954;2023-05-07T04:56:04;15.30;99.90
5130;DHT22;2583;50.946;6.954;2023-05-07T04:58:32;15.30;99.90
5130;DHT22;2583;50.946;6.954;2023-05-07T05:00:59;15.40;99.90
5130;DHT22;2583;50.946;6.954;2023-05-07T05:03:27;15.40;99.90
5130;DHT22;2583;50.946;6.954;2023-05-07T05:05:54;15.40;99.90
5130;DHT22;2583;50.946;6.954;2023-05-07T05:08:21;15.40;99.90
5130;DHT22;2583;50.946;6.954;2023-05-07T05:10:49;15.40;99.90
5130;DHT22;2583;50.946;6.954;2023-05-07T05:13:17;15.40;99.90
5130;DHT22;2583;50.946;6.954;2023-05-07T05:15:47;15.50;99.90
5130;DHT22;2583;50.946;6.954;2023-05-07T05:18:14;15.50;99.90
5130;DHT22;2583;50.946;6.954;2023-05-07T05:20:42;15.50;99.90
5130;DHT22;2583;50.946;6.954;2023-05-07T05:23:09;15.60;99.90
5130;DHT22;2583;50.946;6.954;2023-05-07T05:25:37;15.60;99.90
5130;DHT22;2583;50.946;6.954;2023-05-07T05:28:06;15.70;99.90
5130;DHT22;2583;50.946;6.954;2023-05-07T05:30:34;15.70;99.90
5130;DHT22;2583;50.946;6.954;2023-05-07T05:33:02;15.70;99.90
5130;DHT22;2583;50.946;6.954;2023-05-07T05:35:29;15.80;99.90
5130;DHT22;2583;50.946;6.954;2023-05-07T05:37:57;15.80;99.90
5130;DHT22;2583;50.946;6.954;2023-05-07T05:40:25;15.80;99.90
5130;DHT22;2583;50.946;6.954;2023-05-07T05:42:52;15.90;99.90
5130;DHT22;2583;50.946;6.954;2023-05-07T05:45:19;15.90;99.90
5130;DHT22;2583;50.946;6.954;2023-05-07T05:47:46;15.90;99.90
5130;DHT22;2583;50.946;6.954;2023-05-07T05:50:13;16.00;99.90
5130;DHT22;2583;50.946;6.954;2023-05-07T05:52:40;16.00;99.90
5130;DHT22;2583;50.946;6.954;2023-05-07T05:55:08;16.10;99.90
5130;DHT22;2583;50.946;6.954;2023-05-07T05:57:36;16.10;99.90
5130;DHT22;2583;50.946;6.954;2023-05-07T06:00:08;16.10;99.90
5130;DHT22;2583;50.946;6.954;2023-05-07T06:02:37;16.20;99.90
5130;DHT22;2583;50.946;6.954;2023-05-07T06:05:05;16.20;99.90
5130;DHT22;2583;50.946;6.954;2023-05-07T06:07:33;16.20;99.90
5130;DHT22;2583;50.946;6.954;2023-05-07T06:10:01;16.30;99.90
5130;DHT22;2583;50.946;6.954;2023-05-07T06:12:29;16.30;99.90
5130;DHT22;2583;50.946;6.954;2023-05-07T06:14:56;16.40;99.90
5130;DHT22;2583;50.946;6.954;2023-05-07T06:17:23;16.40;99.90
5130;DHT22;2583;50.946;6.954;2023-05-07T06:19:54;16.50;99.90
5130;DHT22;2583;50.946;6.954;2023-05-07T06:22:22;16.50;99.90
5130;DHT22;2583;50.946;6.954;2023-05-07T06:24:49;16.60;99.90
5130;DHT22;2583;50.946;6.954;2023-05-07T06:27:17;16.70;99.90
5130;DHT22;2583;50.946;6.954;2023-05-07T06:29:44;16.70;99.90
5130;DHT22;2583;50.946;6.954;2023-05-07T06:32:13;16.80;99.90
5130;DHT22;2583;50.946;6.954;2023-05-07T06:34:41;16.70;99.90
5130;DHT22;2583;50.946;6.954;2023-05-07T06:37:08;16.80;99.90
5130;DHT22;2583;50.946;6.954;2023-05-07T06:39:35;16.90;99.90
5130;DHT22;2583;50.946;6.954;2023-05-07T06:42:03;16.90;99.90
5130;DHT22;2583;50.946;6.954;2023-05-07T06:44:32;17.00;99.90
5130;DHT22;2583;50.946;6.954;2023-05-07T06:47:00;17.10;99.90
5130;DHT22;2583;50.946;6.954;2023-05-07T06:49:27;17.20;99.90
5130;DHT22;2583;50.946;6.954;2023-05-07T06:51:55;17.30;99.90
5130;DHT22;2583;50.946;6.954;2023-05-07T06:54:23;17.30;99.90
5130;DHT22;2583;50.946;6.954;2023-05-07T06:56:51;17.40;99.90
5130;DHT22;2583;50.946;6.954;2023-05-07T06:59:18;17.40;99.90
5130;DHT22;2583;50.946;6.954;2023-05-07T07:01:49;17.50;99.90
5130;DHT22;2583;50.946;6.954;2023-05-07T07:04:17;17.50;99.90
5130;DHT22;2583;50.946;6.954;2023-05-07T07:06:45;17.60;99.90
5130;DHT22;2583;50.946;6.954;2023-05-07T07:09:12;17.60;99.90
5130;DHT22;2583;50.946;6.954;2023-05-07T07:11:42;17.60;99.90
5130;DHT22;2583;50.946;6.954;2023-05-07T07:14:09;17.60;99.90
5130;DHT22;2583;50.946;6.954;2023-05-07T07:16:37;17.70;99.90
5130;DHT22;2583;50.946;6.954;2023-05-07T07:19:05;17.70;99.90
5130;DHT22;2583;50.946;6.954;2023-05-07T07:21:32;17.80;99.90
5130;DHT22;2583;50.946;6.954;2023-05-07T07:24:00;17.80;99.90
5130;DHT22;2583;50.946;6.954;2023-05-07T07:26:28;17.80;99.90
5130;DHT22;2583;50.946;6.954;2023-05-07T07:28:56;17.90;99.90
5130;DHT22;2583;50.946;6.954;2023-05-07T07:31:26;17.90;99.90
5130;DHT22;2583;50.946;6.954;2023-05-07T07:33:53;18.00;99.90
5130;DHT22;2583;50.946;6.954;2023-05-07T07:36:20;18.10;99.90
5130;DHT22;2583;50.946;6.954;2023-05-07T07:38:54;18.20;99.90
5130;DHT22;2583;50.946;6.954;2023-05-07T07:41:21;18.30;99.90
5130;DHT22;2583;50.946;6.954;2023-05-07T07:43:48;18.40;99.90
5130;DHT22;2583;50.946;6.954;2023-05-07T07:46:15;18.40;99.90
5130;DHT22;2583;50.946;6.954;2023-05-07T07:48:44;18.40;99.90
5130;DHT22;2583;50.946;6.954;2023-05-07T07:51:11;18.50;99.90
5130;DHT22;2583;50.946;6.954;2023-05-07T07:53:38;18.50;99.90
5130;DHT22;2583;50.946;6.954;2023-05-07T07:56:05;18.60;99.90
5130;DHT22;2583;50.946;6.954;2023-05-07T07:58:32;18.60;99.90
5130;DHT22;2583;50.946;6.954;2023-05-07T08:01:00;18.70;99.90
5130;DHT22;2583;50.946;6.954;2023-05-07T08:03:27;18.80;99.90
5130;DHT22;2583;50.946;6.954;2023-05-07T08:05:55;18.80;99.90
5130;DHT22;2583;50.946;6.954;2023-05-07T08:08:22;18.80;99.90
5130;DHT22;2583;50.946;6.954;2023-05-07T08:10:50;18.90;99.90
5130;DHT22;2583;50.946;6.954;2023-05-07T08:13:18;19.00;99.90
5130;DHT22;2583;50.946;6.954;2023-05-07T08:15:45;19.10;98.20
5130;DHT22;2583;50.946;6.954;2023-05-07T08:18:12;19.20;98.40
5130;DHT22;2583;50.946;6.954;2023-05-07T08:20:40;19.30;97.20
5130;DHT22;2583;50.946;6.954;2023-05-07T08:23:08;19.30;97.20
5130;DHT22;2583;50.946;6.954;2023-05-07T08:25:36;19.40;97.10
5130;DHT22;2583;50.946;6.954;2023-05-07T08:28:04;19.40;97.60
5130;DHT22;2583;50.946;6.954;2023-05-07T08:30:35;19.60;97.40
5130;DHT22;2583;50.946;6.954;2023-05-07T08:33:03;19.60;96.30
5130;DHT22;2583;50.946;6.954;2023-05-07T08:35:34;19.70;96.10
5130;DHT22;2583;50.946;6.954;2023-05-07T08:38:01;19.70;95.70
5130;DHT22;2583;50.946;6.954;2023-05-07T08:40:28;19.90;95.40
5130;DHT22;2583;50.946;6.954;2023-05-07T08:42:56;19.90;94.80
5130;DHT22;2583;50.946;6.954;2023-05-07T08:45:24;19.90;94.40
5130;DHT22;2583;50.946;6.954;2023-05-07T08:47:57;20.00;94.20
5130;DHT22;2583;50.946;6.954;2023-05-07T08:50:25;20.10;92.70
5130;DHT22;2583;50.946;6.954;2023-05-07T08:52:52;20.20;92.30
5130;DHT22;2583;50.946;6.954;2023-05-07T08:55:19;20.30;92.60
5130;DHT22;2583;50.946;6.954;2023-05-07T08:57:46;20.30;91.00
5130;DHT22;2583;50.946;6.954;2023-05-07T09:00:15;20.40;90.70
5130;DHT22;2583;50.946;6.954;2023-05-07T09:02:42;20.50;90.10
5130;DHT22;2583;50.946;6.954;2023-05-07T09:05:09;20.50;87.60
5130;DHT22;2583;50.946;6.954;2023-05-07T09:07:36;20.60;89.20
5130;DHT22;2583;50.946;6.954;2023-05-07T09:10:03;20.60;89.00
5130;DHT22;2583;50.946;6.954;2023-05-07T09:12:31;20.60;87.50
5130;DHT22;2583;50.946;6.954;2023-05-07T09:14:59;20.50;90.00
5130;DHT22;2583;50.946;6.954;2023-05-07T09:17:26;20.50;90.40
5130;DHT22;2583;50.946;6.954;2023-05-07T09:19:53;20.60;90.10
5130;DHT22;2583;50.946;6.954;2023-05-07T09:22:19;20.70;90.40
5130;DHT22;2583;50.946;6.954;2023-05-07T09:24:51;20.80;88.10
5130;DHT22;2583;50.946;6.954;2023-05-07T09:27:18;21.00;85.30
5130;DHT22;2583;50.946;6.954;2023-05-07T09:29:45;21.20;83.20
5130;DHT22;2583;50.946;6.954;2023-05-07T09:32:11;21.30;79.20
5130;DHT22;2583;50.946;6.954;2023-05-07T09:34:38;21.50;78.40
5130;DHT22;2583;50.946;6.954;2023-05-07T09:37:05;21.70;72.80
5130;DHT22;2583;50.946;6.954;2023-05-07T09:42:06;21.80;65.00
5130;DHT22;2583;50.946;6.954;2023-05-07T09:44:34;21.90;66.50
5130;DHT22;2583;50.946;6.954;2023-05-07T09:47:01;22.00;63.00
5130;DHT22;2583;50.946;6.954;2023-05-07T09:49:34;22.00;62.10
5130;DHT22;2583;50.946;6.954;2023-05-07T09:52:03;22.00;59.80
5130;DHT22;2583;50.946;6.954;2023-05-07T09:54:33;22.20;58.40
5130;DHT22;2583;50.946;6.954;2023-05-07T09:57:01;22.20;58.70
5130;DHT22;2583;50.946;6.954;2023-05-07T09:59:31;22.30;57.40
5130;DHT22;2583;50.946;6.954;2023-05-07T10:01:59;22.40;54.40
5130;DHT22;2583;50.946;6.954;2023-05-07T10:04:31;22.40;53.60
5130;DHT22;2583;50.946;6.954;2023-05-07T10:06:59;22.40;54.00
5130;DHT22;2583;50.946;6.954;2023-05-07T10:09:27;22.20;52.80
5130;DHT22;2583;50.946;6.954;2023-05-07T10:11:54;22.20;54.10
5130;DHT22;2583;50.946;6.954;2023-05-07T10:14:23;22.30;53.30
5130;DHT22;2583;50.946;6.954;2023-05-07T10:16:51;22.50;53.70
5130;DHT22;2583;50.946;6.954;2023-05-07T10:19:19;22.40;51.30
5130;DHT22;2583;50.946;6.954;2023-05-07T10:22:06;22.50;51.70
5130;DHT22;2583;50.946;6.954;2023-05-07T10:24:35;22.50;51.70
5130;DHT22;2583;50.946;6.954;2023-05-07T10:27:10;22.50;52.00
5130;DHT22;2583;50.946;6.954;2023-05-07T10:34:54;22.70;51.90
5130;DHT22;2583;50.946;6.954;2023-05-07T10:37:23;22.70;49.90
5130;DHT22;2583;50.946;6.954;2023-05-07T10:39:52;22.80;49.20
5130;DHT22;2583;50.946;6.954;2023-05-07T10:42:18;22.90;49.20
5130;DHT22;2583;50.946;6.954;2023-05-07T10:44:45;23.00;47.70
5130;DHT22;2583;50.946;6.954;2023-05-07T10:47:15;23.00;47.20
5130;DHT22;2583;50.946;6.954;2023-05-07T10:54:41;23.40;43.80
5130;DHT22;2583;50.946;6.954;2023-05-07T10:57:33;23.50;42.90
5130;DHT22;2583;50.946;6.954;2023-05-07T11:03:07;23.90;39.80
5130;DHT22;2583;50.946;6.954;2023-05-07T11:05:35;24.20;39.10
5130;DHT22;2583;50.946;6.954;2023-05-07T11:08:05;24.30;36.30
5130;DHT22;2583;50.946;6.954;2023-05-07T11:13:48;24.50;35.40
5130;DHT22;2583;50.946;6.954;2023-05-07T11:16:23;24.70;35.60
5130;DHT22;2583;50.946;6.954;2023-05-07T11:18:52;24.70;32.70
5130;DHT22;2583;50.946;6.954;2023-05-07T11:24:02;24.70;31.20
5130;DHT22;2583;50.946;6.954;2023-05-07T11:26:50;24.80;32.90
5130;DHT22;2583;50.946;6.954;2023-05-07T11:29:23;24.90;31.80
5130;DHT22;2583;50.946;6.954;2023-05-07T11:31:53;24.90;30.00
5130;DHT22;2583;50.946;6.954;2023-05-07T11:34:24;24.70;26.70
5130;DHT22;2583;50.946;6.954;2023-05-07T11:36:52;24.60;28.00
5130;DHT22;2583;50.946;6.954;2023-05-07T11:39:29;24.40;28.20
5130;DHT22;2583;50.946;6.954;2023-05-07T11:41:57;24.30;28.40
5130;DHT22;2583;50.946;6.954;2023-05-07T11:44:24;24.10;28.40
5130;DHT22;2583;50.946;6.954;2023-05-07T11:46:51;24.10;28.50
5130;DHT22;2583;50.946;6.954;2023-05-07T11:49:18;24.10;28.70
5130;DHT22;2583;50.946;6.954;2023-05-07T11:51:45;24.00;27.80
5130;DHT22;2583;50.946;6.954;2023-05-07T11:54:15;24.00;27.80
5130;DHT22;2583;50.946;6.954;2023-05-07T11:56:43;23.80;28.30
5130;DHT22;2583;50.946;6.954;2023-05-07T11:59:10;23.80;29.00
5130;DHT22;2583;50.946;6.954;2023-05-07T12:01:37;23.80;29.00
5130;DHT22;2583;50.946;6.954;2023-05-07T12:04:04;23.80;29.20
5130;DHT22;2583;50.946;6.954;2023-05-07T12:06:36;23.80;29.00
5130;DHT22;2583;50.946;6.954;2023-05-07T12:09:04;23.80;29.20
5130;DHT22;2583;50.946;6.954;2023-05-07T12:11:31;23.80;28.20
5130;DHT22;2583;50.946;6.954;2023-05-07T12:13:58;23.80;28.60
5130;DHT22;2583;50.946;6.954;2023-05-07T12:16:26;23.70;28.80
5130;DHT22;2583;50.946;6.954;2023-05-07T12:18:53;23.80;28.90
5130;DHT22;2583;50.946;6.954;2023-05-07T12:21:22;23.80;28.40
5130;DHT22;2583;50.946;6.954;2023-05-07T12:23:49;23.90;28.50
5130;DHT22;2583;50.946;6.954;2023-05-07T12:26:16;23.90;28.00
5130;DHT22;2583;50.946;6.954;2023-05-07T12:28:46;23.90;27.80
5130;DHT22;2583;50.946;6.954;2023-05-07T12:31:14;23.80;28.10
5130;DHT22;2583;50.946;6.954;2023-05-07T12:33:42;23.80;29.00
5130;DHT22;2583;50.946;6.954;2023-05-07T12:36:12;23.80;30.00
5130;DHT22;2583;50.946;6.954;2023-05-07T12:38:40;23.70;30.10
5130;DHT22;2583;50.946;6.954;2023-05-07T12:41:09;23.70;29.90
5130;DHT22;2583;50.946;6.954;2023-05-07T12:43:36;23.50;30.40
5130;DHT22;2583;50.946;6.954;2023-05-07T12:46:06;23.40;32.60
5130;DHT22;2583;50.946;6.954;2023-05-07T12:48:35;23.20;31.80
5130;DHT22;2583;50.946;6.954;2023-05-07T12:51:02;23.20;32.10
5130;DHT22;2583;50.946;6.954;2023-05-07T12:53:30;23.20;32.50
5130;DHT22;2583;50.946;6.954;2023-05-07T12:55:58;23.10;32.70
5130;DHT22;2583;50.946;6.954;2023-05-07T12:58:32;23.10;32.90
5130;DHT22;2583;50.946;6.954;2023-05-07T13:01:01;23.10;33.10
5130;DHT22;2583;50.946;6.954;2023-05-07T13:03:33;23.10;32.80
5130;DHT22;2583;50.946;6.954;2023-05-07T13:06:02;23.00;34.90
5130;DHT22;2583;50.946;6.954;2023-05-07T13:08:31;23.00;36.80
5130;DHT22;2583;50.946;6.954;2023-05-07T13:11:00;22.90;39.00
5130;DHT22;2583;50.946;6.954;2023-05-07T13:13:34;22.80;38.00
5130;DHT22;2583;50.946;6.954;2023-05-07T13:16:02;22.80;41.10
5130;DHT22;2583;50.946;6.954;2023-05-07T13:18:31;22.80;43.70
5130;DHT22;2583;50.946;6.954;2023-05-07T13:20:58;22.70;40.90
5130;DHT22;2583;50.946;6.954;2023-05-07T13:23:26;22.80;39.70
5130;DHT22;2583;50.946;6.954;2023-05-07T13:25:53;22.80;41.60
5130;DHT22;2583;50.946;6.954;2023-05-07T13:28:21;22.80;41.00
5130;DHT22;2583;50.946;6.954;2023-05-07T13:30:48;22.80;39.80
5130;DHT22;2583;50.946;6.954;2023-05-07T13:33:15;22.80;41.20
5130;DHT22;2583;50.946;6.954;2023-05-07T13:35:42;22.90;38.40
5130;DHT22;2583;50.946;6.954;2023-05-07T13:38:10;22.90;38.10
5130;DHT22;2583;50.946;6.954;2023-05-07T13:40:38;22.90;38.70
5130;DHT22;2583;50.946;6.954;2023-05-07T13:43:06;22.90;40.30
5130;DHT22;2583;50.946;6.954;2023-05-07T13:45:34;22.90;40.90
5130;DHT22;2583;50.946;6.954;2023-05-07T13:48:02;22.80;40.70
5130;DHT22;2583;50.946;6.954;2023-05-07T13:50:31;22.70;39.90
5130;DHT22;2583;50.946;6.954;2023-05-07T13:52:59;22.60;39.90
5130;DHT22;2583;50.946;6.954;2023-05-07T13:55:29;22.70;41.10
5130;DHT22;2583;50.946;6.954;2023-05-07T13:57:58;22.60;41.40
5130;DHT22;2583;50.946;6.954;2023-05-07T14:00:26;22.60;40.70
5130;DHT22;2583;50.946;6.954;2023-05-07T14:02:54;22.60;41.00
5130;DHT22;2583;50.946;6.954;2023-05-07T14:05:22;22.60;40.10
5130;DHT22;2583;50.946;6.954;2023-05-07T14:07:54;22.60;39.80
5130;DHT22;2583;50.946;6.954;2023-05-07T14:10:22;22.60;41.00
5130;DHT22;2583;50.946;6.954;2023-05-07T14:12:53;22.60;39.50
5130;DHT22;2583;50.946;6.954;2023-05-07T14:15:20;22.50;40.50
5130;DHT22;2583;50.946;6.954;2023-05-07T14:17:47;22.70;40.90
5130;DHT22;2583;50.946;6.954;2023-05-07T14:20:15;22.70;39.50
5130;DHT22;2583;50.946;6.954;2023-05-07T14:22:43;22.70;39.20
5130;DHT22;2583;50.946;6.954;2023-05-07T14:25:10;22.60;38.60
5130;DHT22;2583;50.946;6.954;2023-05-07T14:27:37;22.60;40.30
5130;DHT22;2583;50.946;6.954;2023-05-07T14:30:05;22.60;41.70
5130;DHT22;2583;50.946;6.954;2023-05-07T14:32:33;22.50;43.90
5130;DHT22;2583;50.946;6.954;2023-05-07T14:35:01;22.50;46.00
5130;DHT22;2583;50.946;6.954;2023-05-07T14:37:28;22.60;48.10
5130;DHT22;2583;50.946;6.954;2023-05-07T14:39:55;22.50;49.30
5130;DHT22;2583;50.946;6.954;2023-05-07T14:42:22;22.40;50.00
5130;DHT22;2583;50.946;6.954;2023-05-07T14:44:50;22.50;51.90
5130;DHT22;2583;50.946;6.954;2023-05-07T14:47:18;22.30;55.10
5130;DHT22;2583;50.946;6.954;2023-05-07T14:49:45;22.20;56.10
5130;DHT22;2583;50.946;6.954;2023-05-07T14:52:13;22.20;57.90
5130;DHT22;2583;50.946;6.954;2023-05-07T14:54:40;22.20;60.00
5130;DHT22;2583;50.946;6.954;2023-05-07T14:57:09;22.20;60.80
5130;DHT22;2583;50.946;6.954;2023-05-07T14:59:38;22.10;60.40
5130;DHT22;2583;50.946;6.954;2023-05-07T15:02:06;22.10;62.90
5130;DHT22;2583;50.946;6.954;2023-05-07T15:04:35;21.90;69.20
5130;DHT22;2583;50.946;6.954;2023-05-07T15:07:02;21.60;74.60
5130;DHT22;2583;50.946;6.954;2023-05-07T15:09:30;21.50;78.20
5130;DHT22;2583;50.946;6.954;2023-05-07T15:11:57;21.40;83.00
5130;DHT22;2583;50.946;6.954;2023-05-07T15:14:25;21.30;72.40
5130;DHT22;2583;50.946;6.954;2023-05-07T15:16:52;21.30;72.70
5130;DHT22;2583;50.946;6.954;2023-05-07T15:19:19;21.20;75.90
5130;DHT22;2583;50.946;6.954;2023-05-07T15:21:46;21.40;75.30
5130;DHT22;2583;50.946;6.954;2023-05-07T15:24:13;21.30;72.90
5130;DHT22;2583;50.946;6.954;2023-05-07T15:26:44;21.20;71.30
5130;DHT22;2583;50.946;6.954;2023-05-07T15:29:12;21.20;66.70
5130;DHT22;2583;50.946;6.954;2023-05-07T15:31:39;21.20;70.20
5130;DHT22;2583;50.946;6.954;2023-05-07T15:34:07;21.30;67.70
5130;DHT22;2583;50.946;6.954;2023-05-07T15:36:34;21.40;69.30
5130;DHT22;2583;50.946;6.954;2023-05-07T15:39:02;21.40;72.50
5130;DHT22;2583;50.946;6.954;2023-05-07T15:41:30;21.60;74.80
5130;DHT22;2583;50.946;6.954;2023-05-07T15:43:57;21.70;76.50
5130;DHT22;2583;50.946;6.954;2023-05-07T15:46:25;21.50;81.10
5130;DHT22;2583;50.946;6.954;2023-05-07T15:48:53;21.50;84.00
5130;DHT22;2583;50.946;6.954;2023-05-07T15:51:21;21.40;87.20
5130;DHT22;2583;50.946;6.954;2023-05-07T15:53:49;21.30;90.70
5130;DHT22;2583;50.946;6.954;2023-05-07T15:56:17;21.30;91.80
5130;DHT22;2583;50.946;6.954;2023-05-07T15:58:44;21.30;89.60
5130;DHT22;2583;50.946;6.954;2023-05-07T16:01:11;21.30;86.30
5130;DHT22;2583;50.946;6.954;2023-05-07T16:03:39;21.40;85.60
5130;DHT22;2583;50.946;6.954;2023-05-07T16:06:06;21.40;86.00
5130;DHT22;2583;50.946;6.954;2023-05-07T16:08:33;21.30;87.60
5130;DHT22;2583;50.946;6.954;2023-05-07T16:11:00;21.40;88.40
5130;DHT22;2583;50.946;6.954;2023-05-07T16:13:27;21.40;87.30
5130;DHT22;2583;50.946;6.954;2023-05-07T16:15:58;21.50;88.50
5130;DHT22;2583;50.946;6.954;2023-05-07T16:18:25;21.40;85.90
5130;DHT22;2583;50.946;6.954;2023-05-07T16:20:51;21.30;85.80
5130;DHT22;2583;50.946;6.954;2023-05-07T16:23:19;21.30;87.40
5130;DHT22;2583;50.946;6.954;2023-05-07T16:25:47;21.30;88.90
5130;DHT22;2583;50.946;6.954;2023-05-07T16:28:14;21.20;90.20
5130;DHT22;2583;50.946;6.954;2023-05-07T16:30:41;21.20;91.70